sensor_id;sensor_type;location;lat;lon;timestamp;P1;durP1;ratioP1;P2;durP2;ratioP2
77170;SDS011;66144;50.020;14.422;2023-02-15T00:04:15;35.28;;;16.90;;
77170;SDS011;66144;50.020;14.422;2023-02-15T00:06:42;28.27;;;15.20;;
77170;SDS011;66144;50.020;14.422;2023-02-15T00:11:33;28.85;;;14.23;;
77170;SDS011;66144;50.020;14.422;2023-02-15T00:16:38;31.33;;;14.73;;
77170;SDS011;66144;50.020;14.422;2023-02-15T00:19:04;31.33;;;14.13;;
77170;SDS011;66144;50.020;14.422;2023-02-15T00:23:56;27.98;;;12.38;;
77170;SDS011;66144;50.020;14.422;2023-02-15T00:26:23;34.13;;;15.73;;
77170;SDS011;66144;50.020;14.422;2023-02-15T00:28:49;30.52;;;14.32;;
77170;SDS011;66144;50.020;14.422;2023-02-15T00:33:39;27.90;;;13.93;;
77170;SDS011;66144;50.020;14.422;2023-02-15T00:38:32;27.77;;;13.98;;
77170;SDS011;66144;50.020;14.422;2023-02-15T00:40:58;29.40;;;14.13;;
77170;SDS011;66144;50.020;14.422;2023-02-15T00:43:26;33.13;;;15.98;;
77170;SDS011;66144;50.020;14.422;2023-02-15T00:45:52;34.78;;;15.57;;
77170;SDS011;66144;50.020;14.422;2023-02-15T00:50:46;30.33;;;14.95;;
77170;SDS011;66144;50.020;14.422;2023-02-15T00:53:16;32.38;;;15.70;;
77170;SDS011;66144;50.020;14.422;2023-02-15T00:58:08;28.55;;;13.65;;
77170;SDS011;66144;50.020;14.422;2023-02-15T01:00:34;32.33;;;15.77;;
77170;SDS011;66144;50.020;14.422;2023-02-15T01:05:25;33.20;;;14.47;;
77170;SDS011;66144;50.020;14.422;2023-02-15T01:10:16;33.93;;;15.53;;
77170;SDS011;66144;50.020;14.422;2023-02-15T01:15:07;30.65;;;13.52;;
77170;SDS011;66144;50.020;14.422;2023-02-15T01:19:58;35.17;;;14.57;;
77170;SDS011;66144;50.020;14.422;2023-02-15T01:24:49;30.02;;;13.35;;
77170;SDS011;66144;50.020;14.422;2023-02-15T01:29:40;29.50;;;13.13;;
77170;SDS011;66144;50.020;14.422;2023-02-15T01:34:31;32.27;;;14.23;;
77170;SDS011;66144;50.020;14.422;2023-02-15T01:39:21;31.27;;;13.23;;
77170;SDS011;66144;50.020;14.422;2023-02-15T01:47:12;30.48;;;13.95;;
77170;SDS011;66144;50.020;14.422;2023-02-15T01:49:41;31.60;;;13.45;;
77170;SDS011;66144;50.020;14.422;2023-02-15T01:52:09;30.70;;;14.25;;
77170;SDS011;66144;50.020;14.422;2023-02-15T01:54:38;33.53;;;15.02;;
77170;SDS011;66144;50.020;14.422;2023-02-15T01:57:08;31.45;;;14.95;;
77170;SDS011;66144;50.020;14.422;2023-02-15T01:59:37;35.13;;;15.07;;
77170;SDS011;66144;50.020;14.422;2023-02-15T02:02:07;32.55;;;16.67;;
77170;SDS011;66144;50.020;14.422;2023-02-15T02:04:39;33.80;;;16.35;;
77170;SDS011;66144;50.020;14.422;2023-02-15T02:07:09;27.52;;;14.02;;
77170;SDS011;66144;50.020;14.422;2023-02-15T02:09:37;31.30;;;13.80;;
77170;SDS011;66144;50.020;14.422;2023-02-15T02:12:03;31.10;;;13.60;;
77170;SDS011;66144;50.020;14.422;2023-02-15T02:25:42;29.58;;;12.63;;
77170;SDS011;66144;50.020;14.422;2023-02-15T02:30:51;37.50;;;15.70;;
77170;SDS011;66144;50.020;14.422;2023-02-15T02:41:35;35.08;;;14.48;;
77170;SDS011;66144;50.020;14.422;2023-02-15T02:46:47;39.55;;;17.38;;
77170;SDS011;66144;50.020;14.422;2023-02-15T02:49:13;34.38;;;15.82;;
77170;SDS011;66144;50.020;14.422;2023-02-15T02:54:05;34.93;;;15.00;;
77170;SDS011;66144;50.020;14.422;2023-02-15T02:56:34;35.38;;;16.40;;
77170;SDS011;66144;50.020;14.422;2023-02-15T03:01:39;32.35;;;14.20;;
77170;SDS011;66144;50.020;14.422;2023-02-15T03:04:10;34.65;;;14.65;;
77170;SDS011;66144;50.020;14.422;2023-02-15T03:06:46;37.50;;;16.02;;
77170;SDS011;66144;50.020;14.422;2023-02-15T03:09:33;36.30;;;15.57;;
77170;SDS011;66144;50.020;14.422;2023-02-15T03:12:07;37.13;;;16.73;;
77170;SDS011;66144;50.020;14.422;2023-02-15T03:14:35;37.22;;;17.27;;
77170;SDS011;66144;50.020;14.422;2023-02-15T03:17:00;33.55;;;16.63;;
77170;SDS011;66144;50.020;14.422;2023-02-15T03:19:33;35.70;;;16.15;;
77170;SDS011;66144;50.020;14.422;2023-02-15T03:22:03;39.50;;;16.17;;
77170;SDS011;66144;50.020;14.422;2023-02-15T03:24:41;38.08;;;16.80;;
77170;SDS011;66144;50.020;14.422;2023-02-15T03:27:12;35.25;;;15.23;;
77170;SDS011;66144;50.020;14.422;2023-02-15T03:29:45;35.85;;;17.17;;
77170;SDS011;66144;50.020;14.422;2023-02-15T03:32:13;35.40;;;15.70;;
77170;SDS011;66144;50.020;14.422;2023-02-15T03:34:40;35.30;;;15.98;;
77170;SDS011;66144;50.020;14.422;2023-02-15T03:39:49;31.05;;;16.08;;
77170;SDS011;66144;50.020;14.422;2023-02-15T03:42:22;35.63;;;15.98;;
77170;SDS011;66144;50.020;14.422;2023-02-15T03:45:05;34.95;;;16.15;;
77170;SDS011;66144;50.020;14.422;2023-02-15T03:47:43;37.03;;;15.63;;
77170;SDS011;66144;50.020;14.422;2023-02-15T03:50:18;41.80;;;17.17;;
77170;SDS011;66144;50.020;14.422;2023-02-15T03:53:09;35.45;;;15.05;;
77170;SDS011;66144;50.020;14.422;2023-02-15T03:55:38;34.83;;;16.88;;
77170;SDS011;66144;50.020;14.422;2023-02-15T04:01:11;34.58;;;15.18;;
77170;SDS011;66144;50.020;14.422;2023-02-15T04:04:01;35.22;;;15.05;;
77170;SDS011;66144;50.020;14.422;2023-02-15T04:06:31;35.28;;;15.05;;
77170;SDS011;66144;50.020;14.422;2023-02-15T04:11:40;31.80;;;13.77;;
77170;SDS011;66144;50.020;14.422;2023-02-15T04:17:00;33.97;;;14.60;;
77170;SDS011;66144;50.020;14.422;2023-02-15T04:22:09;34.25;;;14.48;;
77170;SDS011;66144;50.020;14.422;2023-02-15T04:24:54;35.60;;;16.55;;
77170;SDS011;66144;50.020;14.422;2023-02-15T04:27:34;37.60;;;14.35;;
77170;SDS011;66144;50.020;14.422;2023-02-15T04:30:00;33.85;;;15.13;;
77170;SDS011;66144;50.020;14.422;2023-02-15T04:32:26;33.63;;;14.95;;
77170;SDS011;66144;50.020;14.422;2023-02-15T04:34:52;38.08;;;15.60;;
77170;SDS011;66144;50.020;14.422;2023-02-15T04:39:43;34.67;;;14.40;;
77170;SDS011;66144;50.020;14.422;2023-02-15T04:44:33;36.13;;;15.23;;
77170;SDS011;66144;50.020;14.422;2023-02-15T04:49:24;36.87;;;15.17;;
77170;SDS011;66144;50.020;14.422;2023-02-15T04:54:14;31.80;;;13.93;;
77170;SDS011;66144;50.020;14.422;2023-02-15T04:59:05;35.77;;;14.97;;
77170;SDS011;66144;50.020;14.422;2023-02-15T05:03:56;37.40;;;15.87;;
77170;SDS011;66144;50.020;14.422;2023-02-15T05:08:46;35.33;;;14.30;;
77170;SDS011;66144;50.020;14.422;2023-02-15T05:13:37;29.20;;;11.90;;
77170;SDS011;66144;50.020;14.422;2023-02-15T05:16:02;30.30;;;12.75;;
77170;SDS011;66144;50.020;14.422;2023-02-15T05:20:53;32.80;;;13.67;;
77170;SDS011;66144;50.020;14.422;2023-02-15T05:23:18;32.70;;;12.73;;
77170;SDS011;66144;50.020;14.422;2023-02-15T05:28:31;32.72;;;13.85;;
77170;SDS011;66144;50.020;14.422;2023-02-15T05:33:39;32.35;;;13.55;;
77170;SDS011;66144;50.020;14.422;2023-02-15T05:36:05;32.38;;;13.68;;
77170;SDS011;66144;50.020;14.422;2023-02-15T05:38:31;31.30;;;13.30;;
77170;SDS011;66144;50.020;14.422;2023-02-15T05:40:57;34.63;;;13.43;;
77170;SDS011;66144;50.020;14.422;2023-02-15T05:43:22;32.55;;;14.30;;
77170;SDS011;66144;50.020;14.422;2023-02-15T05:48:17;28.52;;;11.43;;
77170;SDS011;66144;50.020;14.422;2023-02-15T05:50:43;29.70;;;12.68;;
77170;SDS011;66144;50.020;14.422;2023-02-15T05:53:09;32.88;;;13.18;;
77170;SDS011;66144;50.020;14.422;2023-02-15T05:55:41;27.48;;;12.70;;
77170;SDS011;66144;50.020;14.422;2023-02-15T05:58:07;29.15;;;11.48;;
77170;SDS011;66144;50.020;14.422;2023-02-15T06:02:58;31.42;;;13.35;;
77170;SDS011;66144;50.020;14.422;2023-02-15T06:07:48;34.90;;;11.63;;
77170;SDS011;66144;50.020;14.422;2023-02-15T06:12:39;30.02;;;12.73;;
77170;SDS011;66144;50.020;14.422;2023-02-15T06:17:30;31.23;;;11.65;;
77170;SDS011;66144;50.020;14.422;2023-02-15T06:19:56;33.60;;;12.95;;
77170;SDS011;66144;50.020;14.422;2023-02-15T06:24:47;30.23;;;13.32;;
77170;SDS011;66144;50.020;14.422;2023-02-15T06:27:13;31.77;;;12.52;;
77170;SDS011;66144;50.020;14.422;2023-02-15T06:29:38;30.10;;;11.32;;
77170;SDS011;66144;50.020;14.422;2023-02-15T06:34:29;30.73;;;12.48;;
77170;SDS011;66144;50.020;14.422;2023-02-15T06:36:54;31.35;;;11.88;;
77170;SDS011;66144;50.020;14.422;2023-02-15T06:39:19;30.15;;;12.68;;
77170;SDS011;66144;50.020;14.422;2023-02-15T06:44:10;30.73;;;11.17;;
77170;SDS011;66144;50.020;14.422;2023-02-15T06:46:35;28.83;;;11.80;;
77170;SDS011;66144;50.020;14.422;2023-02-15T06:49:01;33.67;;;12.80;;
77170;SDS011;66144;50.020;14.422;2023-02-15T06:51:26;28.45;;;11.82;;
77170;SDS011;66144;50.020;14.422;2023-02-15T06:56:17;34.30;;;13.27;;
77170;SDS011;66144;50.020;14.422;2023-02-15T07:01:08;26.17;;;10.85;;
77170;SDS011;66144;50.020;14.422;2023-02-15T07:03:34;32.08;;;11.55;;
77170;SDS011;66144;50.020;14.422;2023-02-15T07:06:01;29.15;;;11.88;;
77170;SDS011;66144;50.020;14.422;2023-02-15T07:08:27;28.65;;;10.93;;
77170;SDS011;66144;50.020;14.422;2023-02-15T07:10:54;32.45;;;12.48;;
77170;SDS011;66144;50.020;14.422;2023-02-15T07:13:40;29.63;;;11.43;;
77170;SDS011;66144;50.020;14.422;2023-02-15T07:16:07;30.95;;;12.32;;
77170;SDS011;66144;50.020;14.422;2023-02-15T07:18:33;26.08;;;10.90;;
77170;SDS011;66144;50.020;14.422;2023-02-15T07:20:58;29.90;;;11.88;;
77170;SDS011;66144;50.020;14.422;2023-02-15T07:25:55;22.38;;;9.95;;
77170;SDS011;66144;50.020;14.422;2023-02-15T07:28:24;27.30;;;10.90;;
77170;SDS011;66144;50.020;14.422;2023-02-15T07:30:50;29.52;;;11.73;;
77170;SDS011;66144;50.020;14.422;2023-02-15T07:33:16;27.02;;;11.38;;
77170;SDS011;66144;50.020;14.422;2023-02-15T07:35:53;27.10;;;10.70;;
77170;SDS011;66144;50.020;14.422;2023-02-15T07:38:20;29.17;;;11.38;;
77170;SDS011;66144;50.020;14.422;2023-02-15T07:43:11;23.92;;;10.52;;
77170;SDS011;66144;50.020;14.422;2023-02-15T07:48:03;28.75;;;11.35;;
77170;SDS011;66144;50.020;14.422;2023-02-15T07:50:29;27.42;;;11.60;;
77170;SDS011;66144;50.020;14.422;2023-02-15T07:55:20;26.70;;;10.83;;
77170;SDS011;66144;50.020;14.422;2023-02-15T07:57:46;28.60;;;11.00;;
77170;SDS011;66144;50.020;14.422;2023-02-15T08:00:14;25.80;;;9.68;;
77170;SDS011;66144;50.020;14.422;2023-02-15T08:02:48;27.92;;;10.90;;
77170;SDS011;66144;50.020;14.422;2023-02-15T08:05:38;25.27;;;10.35;;
77170;SDS011;66144;50.020;14.422;2023-02-15T08:08:05;29.50;;;12.13;;
77170;SDS011;66144;50.020;14.422;2023-02-15T08:13:14;31.75;;;12.60;;
77170;SDS011;66144;50.020;14.422;2023-02-15T08:18:12;28.92;;;10.68;;
77170;SDS011;66144;50.020;14.422;2023-02-15T08:20:37;30.40;;;11.60;;
77170;SDS011;66144;50.020;14.422;2023-02-15T08:25:28;28.60;;;12.60;;
77170;SDS011;66144;50.020;14.422;2023-02-15T08:30:18;25.53;;;10.00;;
77170;SDS011;66144;50.020;14.422;2023-02-15T08:32:44;31.98;;;12.18;;
77170;SDS011;66144;50.020;14.422;2023-02-15T08:37:34;30.77;;;13.07;;
77170;SDS011;66144;50.020;14.422;2023-02-15T08:40:00;27.52;;;12.02;;
77170;SDS011;66144;50.020;14.422;2023-02-15T08:44:50;24.50;;;10.03;;
77170;SDS011;66144;50.020;14.422;2023-02-15T08:49:41;28.33;;;11.20;;
77170;SDS011;66144;50.020;14.422;2023-02-15T08:54:32;29.40;;;12.43;;
77170;SDS011;66144;50.020;14.422;2023-02-15T08:59:23;25.58;;;10.15;;
77170;SDS011;66144;50.020;14.422;2023-02-15T09:01:51;24.98;;;11.05;;
77170;SDS011;66144;50.020;14.422;2023-02-15T09:04:17;28.52;;;11.75;;
77170;SDS011;66144;50.020;14.422;2023-02-15T09:09:09;26.23;;;10.93;;
77170;SDS011;66144;50.020;14.422;2023-02-15T09:11:36;28.73;;;12.35;;
77170;SDS011;66144;50.020;14.422;2023-02-15T09:14:08;24.77;;;9.90;;
77170;SDS011;66144;50.020;14.422;2023-02-15T09:16:38;28.08;;;11.55;;
77170;SDS011;66144;50.020;14.422;2023-02-15T09:19:05;29.85;;;12.43;;
77170;SDS011;66144;50.020;14.422;2023-02-15T09:21:31;30.70;;;12.85;;
77170;SDS011;66144;50.020;14.422;2023-02-15T09:23:59;29.95;;;14.45;;
77170;SDS011;66144;50.020;14.422;2023-02-15T09:26:26;27.20;;;11.82;;
77170;SDS011;66144;50.020;14.422;2023-02-15T09:28:54;31.98;;;13.60;;
77170;SDS011;66144;50.020;14.422;2023-02-15T09:31:22;31.83;;;12.93;;
77170;SDS011;66144;50.020;14.422;2023-02-15T09:33:49;27.58;;;12.27;;
77170;SDS011;66144;50.020;14.422;2023-02-15T09:41:21;28.33;;;11.33;;
77170;SDS011;66144;50.020;14.422;2023-02-15T09:49:24;26.73;;;12.10;;
77170;SDS011;66144;50.020;14.422;2023-02-15T10:00:12;26.58;;;12.43;;
77170;SDS011;66144;50.020;14.422;2023-02-15T10:03:09;29.58;;;13.63;;
77170;SDS011;66144;50.020;14.422;2023-02-15T10:08:25;30.02;;;12.45;;
77170;SDS011;66144;50.020;14.422;2023-02-15T10:11:11;27.05;;;10.82;;
77170;SDS011;66144;50.020;14.422;2023-02-15T10:16:41;24.70;;;10.52;;
77170;SDS011;66144;50.020;14.422;2023-02-15T10:24:36;26.55;;;11.50;;
77170;SDS011;66144;50.020;14.422;2023-02-15T10:27:12;25.65;;;10.57;;
77170;SDS011;66144;50.020;14.422;2023-02-15T10:32:27;24.35;;;11.40;;
77170;SDS011;66144;50.020;14.422;2023-02-15T10:52:14;20.23;;;9.40;;
77170;SDS011;66144;50.020;14.422;2023-02-15T10:55:09;23.48;;;9.90;;
77170;SDS011;66144;50.020;14.422;2023-02-15T11:06:21;18.13;;;8.88;;
77170;SDS011;66144;50.020;14.422;2023-02-15T11:08:45;16.98;;;8.45;;
77170;SDS011;66144;50.020;14.422;2023-02-15T11:11:20;19.83;;;8.27;;
77170;SDS011;66144;50.020;14.422;2023-02-15T11:13:50;23.17;;;10.50;;
77170;SDS011;66144;50.020;14.422;2023-02-15T11:16:22;20.48;;;10.90;;
77170;SDS011;66144;50.020;14.422;2023-02-15T11:18:51;19.58;;;9.52;;
77170;SDS011;66144;50.020;14.422;2023-02-15T11:21:24;18.13;;;8.48;;
77170;SDS011;66144;50.020;14.422;2023-02-15T11:23:54;17.77;;;8.63;;
77170;SDS011;66144;50.020;14.422;2023-02-15T11:28:52;18.63;;;8.50;;
77170;SDS011;66144;50.020;14.422;2023-02-15T11:31:23;19.02;;;9.20;;
77170;SDS011;66144;50.020;14.422;2023-02-15T11:34:10;21.80;;;9.93;;
77170;SDS011;66144;50.020;14.422;2023-02-15T11:36:42;17.70;;;8.20;;
77170;SDS011;66144;50.020;14.422;2023-02-15T11:39:09;18.17;;;9.35;;
77170;SDS011;66144;50.020;14.422;2023-02-15T11:41:40;18.48;;;9.23;;
77170;SDS011;66144;50.020;14.422;2023-02-15T11:44:17;17.05;;;8.70;;
77170;SDS011;66144;50.020;14.422;2023-02-15T11:46:48;17.58;;;9.32;;
77170;SDS011;66144;50.020;14.422;2023-02-15T11:51:52;18.65;;;8.13;;
77170;SDS011;66144;50.020;14.422;2023-02-15T11:54:21;17.00;;;9.07;;
77170;SDS011;66144;50.020;14.422;2023-02-15T11:56:51;17.40;;;8.77;;
77170;SDS011;66144;50.020;14.422;2023-02-15T12:01:52;17.58;;;7.78;;
77170;SDS011;66144;50.020;14.422;2023-02-15T12:06:44;14.63;;;7.27;;
77170;SDS011;66144;50.020;14.422;2023-02-15T12:09:24;17.92;;;8.95;;
77170;SDS011;66144;50.020;14.422;2023-02-15T12:14:47;19.67;;;9.25;;
77170;SDS011;66144;50.020;14.422;2023-02-15T12:17:15;18.65;;;9.93;;
77170;SDS011;66144;50.020;14.422;2023-02-15T12:19:41;15.15;;;8.48;;
77170;SDS011;66144;50.020;14.422;2023-02-15T12:27:26;15.73;;;7.85;;
77170;SDS011;66144;50.020;14.422;2023-02-15T12:29:58;16.90;;;8.55;;
77170;SDS011;66144;50.020;14.422;2023-02-15T12:33:13;14.15;;;7.47;;
77170;SDS011;66144;50.020;14.422;2023-02-15T12:35:47;15.38;;;7.90;;
77170;SDS011;66144;50.020;14.422;2023-02-15T12:38:23;14.63;;;7.68;;
77170;SDS011;66144;50.020;14.422;2023-02-15T12:43:36;17.02;;;7.95;;
77170;SDS011;66144;50.020;14.422;2023-02-15T12:54:36;14.95;;;8.13;;
77170;SDS011;66144;50.020;14.422;2023-02-15T13:00:05;15.70;;;7.95;;
77170;SDS011;66144;50.020;14.422;2023-02-15T13:02:53;16.23;;;8.50;;
77170;SDS011;66144;50.020;14.422;2023-02-15T13:08:13;15.13;;;8.45;;
77170;SDS011;66144;50.020;14.422;2023-02-15T13:11:03;17.38;;;8.75;;
77170;SDS011;66144;50.020;14.422;2023-02-15T13:13:31;16.73;;;8.80;;
77170;SDS011;66144;50.020;14.422;2023-02-15T13:16:02;16.40;;;9.55;;
77170;SDS011;66144;50.020;14.422;2023-02-15T13:18:33;16.23;;;8.57;;
77170;SDS011;66144;50.020;14.422;2023-02-15T13:21:20;19.00;;;9.35;;
77170;SDS011;66144;50.020;14.422;2023-02-15T13:24:32;18.23;;;8.90;;
77170;SDS011;66144;50.020;14.422;2023-02-15T13:26:44;19.05;;;9.07;;
77170;SDS011;66144;50.020;14.422;2023-02-15T13:29:17;16.45;;;8.80;;
77170;SDS011;66144;50.020;14.422;2023-02-15T13:31:50;16.02;;;9.02;;
77170;SDS011;66144;50.020;14.422;2023-02-15T13:34:25;19.13;;;9.20;;
77170;SDS011;66144;50.020;14.422;2023-02-15T13:37:02;18.67;;;9.60;;
77170;SDS011;66144;50.020;14.422;2023-02-15T13:42:13;17.17;;;9.15;;
77170;SDS011;66144;50.020;14.422;2023-02-15T14:01:39;17.08;;;8.95;;
77170;SDS011;66144;50.020;14.422;2023-02-15T14:28:48;19.08;;;9.57;;
77170;SDS011;66144;50.020;14.422;2023-02-15T14:31:15;16.38;;;9.25;;
77170;SDS011;66144;50.020;14.422;2023-02-15T14:33:52;16.08;;;8.93;;
77170;SDS011;66144;50.020;14.422;2023-02-15T14:36:20;17.63;;;9.55;;
77170;SDS011;66144;50.020;14.422;2023-02-15T14:42:12;17.83;;;9.90;;
77170;SDS011;66144;50.020;14.422;2023-02-15T14:44:48;18.27;;;9.02;;
77170;SDS011;66144;50.020;14.422;2023-02-15T14:47:22;19.00;;;9.65;;
77170;SDS011;66144;50.020;14.422;2023-02-15T14:49:55;17.02;;;9.73;;
77170;SDS011;66144;50.020;14.422;2023-02-15T14:52:20;19.52;;;10.05;;
77170;SDS011;66144;50.020;14.422;2023-02-15T15:12:43;23.65;;;11.57;;
77170;SDS011;66144;50.020;14.422;2023-02-15T15:15:51;16.80;;;9.50;;
77170;SDS011;66144;50.020;14.422;2023-02-15T15:18:06;21.13;;;11.15;;
77170;SDS011;66144;50.020;14.422;2023-02-15T15:25:56;22.13;;;11.23;;
77170;SDS011;66144;50.020;14.422;2023-02-15T15:42:04;22.45;;;11.18;;
77170;SDS011;66144;50.020;14.422;2023-02-15T15:49:34;22.50;;;11.70;;
77170;SDS011;66144;50.020;14.422;2023-02-15T15:52:07;21.27;;;11.25;;
77170;SDS011;66144;50.020;14.422;2023-02-15T15:54:38;25.45;;;11.18;;
77170;SDS011;66144;50.020;14.422;2023-02-15T15:57:06;22.77;;;12.00;;
77170;SDS011;66144;50.020;14.422;2023-02-15T15:59:44;23.02;;;11.70;;
77170;SDS011;66144;50.020;14.422;2023-02-15T16:02:15;22.42;;;10.95;;
77170;SDS011;66144;50.020;14.422;2023-02-15T16:04:42;24.33;;;11.70;;
77170;SDS011;66144;50.020;14.422;2023-02-15T16:10:05;22.08;;;10.57;;
77170;SDS011;66144;50.020;14.422;2023-02-15T16:12:31;21.33;;;11.48;;
77170;SDS011;66144;50.020;14.422;2023-02-15T16:15:00;22.50;;;12.18;;
77170;SDS011;66144;50.020;14.422;2023-02-15T16:17:30;26.35;;;12.15;;
77170;SDS011;66144;50.020;14.422;2023-02-15T16:20:01;23.98;;;13.35;;
77170;SDS011;66144;50.020;14.422;2023-02-15T16:22:49;26.45;;;12.82;;
77170;SDS011;66144;50.020;14.422;2023-02-15T16:25:43;27.15;;;13.10;;
77170;SDS011;66144;50.020;14.422;2023-02-15T16:28:19;23.95;;;12.57;;
77170;SDS011;66144;50.020;14.422;2023-02-15T16:30:45;22.42;;;11.70;;
77170;SDS011;66144;50.020;14.422;2023-02-15T16:35:36;23.70;;;11.20;;
77170;SDS011;66144;50.020;14.422;2023-02-15T16:38:04;23.88;;;11.82;;
77170;SDS011;66144;50.020;14.422;2023-02-15T16:43:05;26.77;;;11.68;;
77170;SDS011;66144;50.020;14.422;2023-02-15T16:45:49;22.45;;;11.75;;
77170;SDS011;66144;50.020;14.422;2023-02-15T16:48:23;26.63;;;11.95;;
77170;SDS011;66144;50.020;14.422;2023-02-15T16:50:51;23.48;;;11.82;;
77170;SDS011;66144;50.020;14.422;2023-02-15T16:53:21;25.73;;;12.98;;
77170;SDS011;66144;50.020;14.422;2023-02-15T16:55:50;22.38;;;11.40;;
77170;SDS011;66144;50.020;14.422;2023-02-15T16:58:21;24.58;;;12.55;;
77170;SDS011;66144;50.020;14.422;2023-02-15T17:00:54;29.45;;;13.43;;
77170;SDS011;66144;50.020;14.422;2023-02-15T17:03:22;24.52;;;12.57;;
77170;SDS011;66144;50.020;14.422;2023-02-15T17:05:50;30.63;;;12.93;;
77170;SDS011;66144;50.020;14.422;2023-02-15T17:08:18;31.67;;;13.88;;
77170;SDS011;66144;50.020;14.422;2023-02-15T17:13:23;30.45;;;13.80;;
77170;SDS011;66144;50.020;14.422;2023-02-15T17:18:25;29.17;;;14.35;;
77170;SDS011;66144;50.020;14.422;2023-02-15T17:21:00;29.17;;;13.00;;
77170;SDS011;66144;50.020;14.422;2023-02-15T17:23:41;29.70;;;14.05;;
77170;SDS011;66144;50.020;14.422;2023-02-15T17:26:25;28.33;;;13.15;;
77170;SDS011;66144;50.020;14.422;2023-02-15T17:28:58;34.17;;;14.82;;
77170;SDS011;66144;50.020;14.422;2023-02-15T17:31:27;29.17;;;13.65;;
77170;SDS011;66144;50.020;14.422;2023-02-15T17:33:56;31.42;;;12.95;;
77170;SDS011;66144;50.020;14.422;2023-02-15T17:36:24;36.38;;;15.10;;
77170;SDS011;66144;50.020;14.422;2023-02-15T17:41:21;44.53;;;16.08;;
77170;SDS011;66144;50.020;14.422;2023-02-15T17:43:47;34.88;;;14.30;;
77170;SDS011;66144;50.020;14.422;2023-02-15T17:46:12;26.60;;;13.48;;
77170;SDS011;66144;50.020;14.422;2023-02-15T17:48:39;31.60;;;14.18;;
77170;SDS011;66144;50.020;14.422;2023-02-15T17:51:09;29.67;;;14.45;;
77170;SDS011;66144;50.020;14.422;2023-02-15T17:53:37;37.03;;;16.70;;
77170;SDS011;66144;50.020;14.422;2023-02-15T17:56:03;30.88;;;15.23;;
77170;SDS011;66144;50.020;14.422;2023-02-15T17:58:36;38.80;;;16.98;;
77170;SDS011;66144;50.020;14.422;2023-02-15T18:01:04;42.38;;;17.77;;
77170;SDS011;66144;50.020;14.422;2023-02-15T18:03:51;38.97;;;16.95;;
77170;SDS011;66144;50.020;14.422;2023-02-15T18:06:37;41.80;;;17.55;;
77170;SDS011;66144;50.020;14.422;2023-02-15T18:09:22;45.40;;;18.25;;
77170;SDS011;66144;50.020;14.422;2023-02-15T18:14:49;38.97;;;18.52;;
77170;SDS011;66144;50.020;14.422;2023-02-15T18:17:16;40.50;;;18.30;;
77170;SDS011;66144;50.020;14.422;2023-02-15T18:22:11;42.78;;;18.98;;
77170;SDS011;66144;50.020;14.422;2023-02-15T18:24:41;46.95;;;19.25;;
77170;SDS011;66144;50.020;14.422;2023-02-15T18:27:09;44.28;;;17.20;;
77170;SDS011;66144;50.020;14.422;2023-02-15T18:29:36;45.78;;;18.00;;
77170;SDS011;66144;50.020;14.422;2023-02-15T18:32:01;45.90;;;18.25;;
77170;SDS011;66144;50.020;14.422;2023-02-15T18:34:36;40.47;;;17.33;;
77170;SDS011;66144;50.020;14.422;2023-02-15T18:37:05;41.20;;;18.23;;
77170;SDS011;66144;50.020;14.422;2023-02-15T18:39:35;47.00;;;18.40;;
77170;SDS011;66144;50.020;14.422;2023-02-15T18:42:19;45.95;;;20.58;;
77170;SDS011;66144;50.020;14.422;2023-02-15T18:44:46;44.38;;;19.80;;
77170;SDS011;66144;50.020;14.422;2023-02-15T18:47:12;45.53;;;18.98;;
77170;SDS011;66144;50.020;14.422;2023-02-15T18:49:37;49.22;;;20.25;;
77170;SDS011;66144;50.020;14.422;2023-02-15T18:52:03;49.78;;;19.73;;
77170;SDS011;66144;50.020;14.422;2023-02-15T18:54:28;50.17;;;19.95;;
77170;SDS011;66144;50.020;14.422;2023-02-15T18:56:55;42.25;;;18.02;;
77170;SDS011;66144;50.020;14.422;2023-02-15T18:59:25;45.83;;;18.73;;
77170;SDS011;66144;50.020;14.422;2023-02-15T19:01:55;44.40;;;19.95;;
77170;SDS011;66144;50.020;14.422;2023-02-15T19:04:22;44.00;;;19.10;;
77170;SDS011;66144;50.020;14.422;2023-02-15T19:06:49;46.70;;;19.42;;
77170;SDS011;66144;50.020;14.422;2023-02-15T19:09:21;54.55;;;24.75;;
77170;SDS011;66144;50.020;14.422;2023-02-15T19:11:54;59.00;;;24.63;;
77170;SDS011;66144;50.020;14.422;2023-02-15T19:14:31;48.28;;;21.58;;
77170;SDS011;66144;50.020;14.422;2023-02-15T19:17:01;48.38;;;21.35;;
77170;SDS011;66144;50.020;14.422;2023-02-15T19:19:28;54.10;;;20.88;;
77170;SDS011;66144;50.020;14.422;2023-02-15T19:21:57;46.70;;;20.60;;
77170;SDS011;66144;50.020;14.422;2023-02-15T19:24:27;48.17;;;21.75;;
77170;SDS011;66144;50.020;14.422;2023-02-15T19:27:03;52.28;;;23.52;;
77170;SDS011;66144;50.020;14.422;2023-02-15T19:29:32;53.83;;;22.58;;
77170;SDS011;66144;50.020;14.422;2023-02-15T19:31:59;50.88;;;21.77;;
77170;SDS011;66144;50.020;14.422;2023-02-15T19:34:27;51.38;;;23.73;;
77170;SDS011;66144;50.020;14.422;2023-02-15T19:36:55;50.25;;;23.90;;
77170;SDS011;66144;50.020;14.422;2023-02-15T19:39:24;53.17;;;22.23;;
77170;SDS011;66144;50.020;14.422;2023-02-15T19:41:54;58.75;;;25.73;;
77170;SDS011;66144;50.020;14.422;2023-02-15T19:44:21;68.05;;;29.95;;
77170;SDS011;66144;50.020;14.422;2023-02-15T19:46:48;62.42;;;29.23;;
77170;SDS011;66144;50.020;14.422;2023-02-15T19:49:14;56.55;;;24.42;;
77170;SDS011;66144;50.020;14.422;2023-02-15T19:51:40;67.72;;;28.85;;
77170;SDS011;66144;50.020;14.422;2023-02-15T19:54:19;57.55;;;27.52;;
77170;SDS011;66144;50.020;14.422;2023-02-15T19:56:51;56.58;;;24.52;;
77170;SDS011;66144;50.020;14.422;2023-02-15T20:01:51;55.65;;;26.05;;
77170;SDS011;66144;50.020;14.422;2023-02-15T20:04:18;62.20;;;27.58;;
77170;SDS011;66144;50.020;14.422;2023-02-15T20:06:44;56.67;;;22.35;;
77170;SDS011;66144;50.020;14.422;2023-02-15T20:09:21;54.17;;;22.55;;
77170;SDS011;66144;50.020;14.422;2023-02-15T20:11:50;50.80;;;22.17;;
77170;SDS011;66144;50.020;14.422;2023-02-15T20:14:17;46.63;;;20.85;;
77170;SDS011;66144;50.020;14.422;2023-02-15T20:16:43;44.90;;;20.35;;
77170;SDS011;66144;50.020;14.422;2023-02-15T20:19:08;53.10;;;22.80;;
77170;SDS011;66144;50.020;14.422;2023-02-15T20:21:33;52.00;;;22.90;;
77170;SDS011;66144;50.020;14.422;2023-02-15T20:24:00;53.17;;;24.52;;
77170;SDS011;66144;50.020;14.422;2023-02-15T20:26:26;49.25;;;22.70;;
77170;SDS011;66144;50.020;14.422;2023-02-15T20:28:55;53.53;;;21.63;;
77170;SDS011;66144;50.020;14.422;2023-02-15T20:31:21;51.67;;;23.33;;
77170;SDS011;66144;50.020;14.422;2023-02-15T20:33:47;56.08;;;23.15;;
77170;SDS011;66144;50.020;14.422;2023-02-15T20:38:39;49.58;;;21.48;;
77170;SDS011;66144;50.020;14.422;2023-02-15T20:41:04;50.95;;;22.33;;
77170;SDS011;66144;50.020;14.422;2023-02-15T20:43:54;51.90;;;23.80;;
77170;SDS011;66144;50.020;14.422;2023-02-15T20:46:20;48.72;;;24.00;;
77170;SDS011;66144;50.020;14.422;2023-02-15T20:48:45;55.55;;;23.60;;
77170;SDS011;66144;50.020;14.422;2023-02-15T20:51:14;51.63;;;23.77;;